CheckWX is a tool to help pilots better visualize weather data.  It is not intended as a substitute for an official pre-flight weather briefing.

01:37:31 UTC

OJAM METAR
Amman-Marka International Airport
Amman, Jordan
Current

38 mins ago

OJAM 050100Z 20003KT 8000 NSC 24/08 Q1007 NOSIG
Observed
Jul-5 @ 01:00 UTC
Wind
  • 200° at 3 KTS
Visibility
7998 meters
Flight Rules
MVFR
Cloud Levels
  • Clear skies
Temperature
24°C / 75°F
Dewpoint
C / 46°F
Humidity
36%
Altimeter
29.73" Hg
Pressure
1006.92 hPa
Previous

2 hours ago

OJAM 050000Z 24007KT 8000 NSC 24/08 Q1008 NOSIG
Observed
Jul-5 @ 00:00 UTC
Wind
  • 240° at 7 KTS
Visibility
7998 meters
Flight Rules
MVFR
Cloud Levels
  • Clear skies
Temperature
24°C / 75°F
Dewpoint
C / 46°F
Humidity
36%
Altimeter
29.76" Hg
Pressure
1007.92 hPa
Previous

3 hours ago

OJAM 042300Z 28006KT 8000 NSC 24/08 Q1008 NOSIG
Observed
Jul-4 @ 23:00 UTC
Wind
  • 280° at 6 KTS
Visibility
7998 meters
Flight Rules
MVFR
Cloud Levels
  • Clear skies
Temperature
24°C / 75°F
Dewpoint
C / 46°F
Humidity
36%
Altimeter
29.76" Hg
Pressure
1007.92 hPa